sensor_id;sensor_type;location;lat;lon;timestamp;temperature;humidity
63445;DHT22;49573;47.682;9.170;2023-11-19T00:02:13;7.80;87.80
63445;DHT22;49573;47.682;9.170;2023-11-19T00:04:59;7.80;87.80
63445;DHT22;49573;47.682;9.170;2023-11-19T00:07:45;7.80;87.90
63445;DHT22;49573;47.682;9.170;2023-11-19T00:10:32;7.80;87.90
63445;DHT22;49573;47.682;9.170;2023-11-19T00:13:18;7.90;88.10
63445;DHT22;49573;47.682;9.170;2023-11-19T00:16:06;7.90;88.00
63445;DHT22;49573;47.682;9.170;2023-11-19T00:18:53;7.90;87.90
63445;DHT22;49573;47.682;9.170;2023-11-19T00:21:39;7.90;87.70
63445;DHT22;49573;47.682;9.170;2023-11-19T00:24:27;8.00;87.60
63445;DHT22;49573;47.682;9.170;2023-11-19T00:27:13;8.00;87.50
63445;DHT22;49573;47.682;9.170;2023-11-19T00:30:02;8.00;87.20
63445;DHT22;49573;47.682;9.170;2023-11-19T00:32:52;8.10;87.40
63445;DHT22;49573;47.682;9.170;2023-11-19T00:35:38;8.00;87.70
63445;DHT22;49573;47.682;9.170;2023-11-19T00:38:24;8.10;87.60
63445;DHT22;49573;47.682;9.170;2023-11-19T00:41:10;8.10;87.60
63445;DHT22;49573;47.682;9.170;2023-11-19T00:43:57;8.20;87.50
63445;DHT22;49573;47.682;9.170;2023-11-19T00:46:43;8.20;87.50
63445;DHT22;49573;47.682;9.170;2023-11-19T00:49:30;8.20;87.70
63445;DHT22;49573;47.682;9.170;2023-11-19T00:52:16;8.30;87.40
63445;DHT22;49573;47.682;9.170;2023-11-19T00:55:02;8.30;87.30
63445;DHT22;49573;47.682;9.170;2023-11-19T00:57:48;8.40;87.50
63445;DHT22;49573;47.682;9.170;2023-11-19T01:00:35;8.40;87.30
63445;DHT22;49573;47.682;9.170;2023-11-19T01:03:21;8.50;87.20
63445;DHT22;49573;47.682;9.170;2023-11-19T01:06:09;8.50;87.10
63445;DHT22;49573;47.682;9.170;2023-11-19T01:08:55;8.50;86.50
63445;DHT22;49573;47.682;9.170;2023-11-19T01:11:42;8.50;87.10
63445;DHT22;49573;47.682;9.170;2023-11-19T01:14:28;8.50;87.10
63445;DHT22;49573;47.682;9.170;2023-11-19T01:17:14;8.50;87.00
63445;DHT22;49573;47.682;9.170;2023-11-19T01:20:02;8.50;86.80
63445;DHT22;49573;47.682;9.170;2023-11-19T01:22:53;8.50;87.10
63445;DHT22;49573;47.682;9.170;2023-11-19T01:25:39;8.50;87.30
63445;DHT22;49573;47.682;9.170;2023-11-19T01:28:25;8.50;87.10
63445;DHT22;49573;47.682;9.170;2023-11-19T01:31:11;8.50;87.40
63445;DHT22;49573;47.682;9.170;2023-11-19T01:33:58;8.50;87.30
63445;DHT22;49573;47.682;9.170;2023-11-19T01:36:44;8.50;87.40
63445;DHT22;49573;47.682;9.170;2023-11-19T01:39:33;8.50;87.50
63445;DHT22;49573;47.682;9.170;2023-11-19T01:42:19;8.40;87.50
63445;DHT22;49573;47.682;9.170;2023-11-19T01:45:06;8.40;87.00
63445;DHT22;49573;47.682;9.170;2023-11-19T01:47:54;8.40;87.10
63445;DHT22;49573;47.682;9.170;2023-11-19T01:50:40;8.40;87.00
63445;DHT22;49573;47.682;9.170;2023-11-19T01:53:27;8.40;86.80
63445;DHT22;49573;47.682;9.170;2023-11-19T01:56:15;8.40;86.80
63445;DHT22;49573;47.682;9.170;2023-11-19T01:59:02;8.50;86.70
63445;DHT22;49573;47.682;9.170;2023-11-19T02:01:48;8.50;87.20
63445;DHT22;49573;47.682;9.170;2023-11-19T02:04:37;8.40;88.00
63445;DHT22;49573;47.682;9.170;2023-11-19T02:07:24;8.40;88.20
63445;DHT22;49573;47.682;9.170;2023-11-19T02:10:10;8.40;88.30
63445;DHT22;49573;47.682;9.170;2023-11-19T02:13:01;8.40;88.10
63445;DHT22;49573;47.682;9.170;2023-11-19T02:15:48;8.40;88.70
63445;DHT22;49573;47.682;9.170;2023-11-19T02:18:34;8.40;88.70
63445;DHT22;49573;47.682;9.170;2023-11-19T02:21:20;8.40;88.80
63445;DHT22;49573;47.682;9.170;2023-11-19T02:24:08;8.40;88.80
63445;DHT22;49573;47.682;9.170;2023-11-19T02:26:59;8.40;88.90
63445;DHT22;49573;47.682;9.170;2023-11-19T02:29:49;8.40;88.80
63445;DHT22;49573;47.682;9.170;2023-11-19T02:32:35;8.40;88.70
63445;DHT22;49573;47.682;9.170;2023-11-19T02:35:21;8.50;88.90
63445;DHT22;49573;47.682;9.170;2023-11-19T02:38:08;8.50;88.90
63445;DHT22;49573;47.682;9.170;2023-11-19T02:40:54;8.50;88.80
63445;DHT22;49573;47.682;9.170;2023-11-19T02:43:40;8.50;88.80
63445;DHT22;49573;47.682;9.170;2023-11-19T02:46:28;8.40;88.60
63445;DHT22;49573;47.682;9.170;2023-11-19T02:49:14;8.40;88.80
63445;DHT22;49573;47.682;9.170;2023-11-19T02:52:01;8.50;88.80
63445;DHT22;49573;47.682;9.170;2023-11-19T02:54:47;8.40;89.00
63445;DHT22;49573;47.682;9.170;2023-11-19T02:57:33;8.40;89.10
63445;DHT22;49573;47.682;9.170;2023-11-19T03:00:21;8.40;89.20
63445;DHT22;49573;47.682;9.170;2023-11-19T03:03:12;8.40;88.70
63445;DHT22;49573;47.682;9.170;2023-11-19T03:06:06;8.40;89.00
63445;DHT22;49573;47.682;9.170;2023-11-19T03:08:52;8.40;89.40
63445;DHT22;49573;47.682;9.170;2023-11-19T03:11:38;8.40;89.30
63445;DHT22;49573;47.682;9.170;2023-11-19T03:14:25;8.40;89.40
63445;DHT22;49573;47.682;9.170;2023-11-19T03:17:11;8.50;89.80
63445;DHT22;49573;47.682;9.170;2023-11-19T03:19:59;8.50;89.60
63445;DHT22;49573;47.682;9.170;2023-11-19T03:22:45;8.50;89.60
63445;DHT22;49573;47.682;9.170;2023-11-19T03:25:31;8.50;89.70
63445;DHT22;49573;47.682;9.170;2023-11-19T03:28:22;8.50;89.70
63445;DHT22;49573;47.682;9.170;2023-11-19T03:31:08;8.50;89.80
63445;DHT22;49573;47.682;9.170;2023-11-19T03:33:54;8.50;89.60
63445;DHT22;49573;47.682;9.170;2023-11-19T03:36:41;8.50;89.40
63445;DHT22;49573;47.682;9.170;2023-11-19T03:39:28;8.60;89.40
63445;DHT22;49573;47.682;9.170;2023-11-19T03:42:15;8.70;89.50
63445;DHT22;49573;47.682;9.170;2023-11-19T03:45:01;8.70;89.30
63445;DHT22;49573;47.682;9.170;2023-11-19T03:47:47;8.80;89.70
63445;DHT22;49573;47.682;9.170;2023-11-19T03:50:35;8.80;89.90
63445;DHT22;49573;47.682;9.170;2023-11-19T03:53:23;8.90;89.80
63445;DHT22;49573;47.682;9.170;2023-11-19T03:56:10;8.90;89.60
63445;DHT22;49573;47.682;9.170;2023-11-19T03:58:57;9.00;89.70
63445;DHT22;49573;47.682;9.170;2023-11-19T04:01:43;9.00;89.70
63445;DHT22;49573;47.682;9.170;2023-11-19T04:04:29;9.00;89.80
63445;DHT22;49573;47.682;9.170;2023-11-19T04:07:18;9.00;89.80
63445;DHT22;49573;47.682;9.170;2023-11-19T04:10:06;9.00;89.90
63445;DHT22;49573;47.682;9.170;2023-11-19T04:12:52;9.10;90.00
63445;DHT22;49573;47.682;9.170;2023-11-19T04:15:38;9.10;90.10
63445;DHT22;49573;47.682;9.170;2023-11-19T04:18:24;9.10;90.20
63445;DHT22;49573;47.682;9.170;2023-11-19T04:21:10;9.10;90.20
63445;DHT22;49573;47.682;9.170;2023-11-19T04:23:57;9.20;90.00
63445;DHT22;49573;47.682;9.170;2023-11-19T04:26:45;9.10;90.20
63445;DHT22;49573;47.682;9.170;2023-11-19T04:29:32;9.20;90.30
63445;DHT22;49573;47.682;9.170;2023-11-19T04:32:18;9.20;90.30
63445;DHT22;49573;47.682;9.170;2023-11-19T04:35:05;9.20;90.40
63445;DHT22;49573;47.682;9.170;2023-11-19T04:37:52;9.20;90.40
63445;DHT22;49573;47.682;9.170;2023-11-19T04:40:38;9.20;90.30
63445;DHT22;49573;47.682;9.170;2023-11-19T04:43:26;9.30;90.40
63445;DHT22;49573;47.682;9.170;2023-11-19T04:46:12;9.30;90.30
63445;DHT22;49573;47.682;9.170;2023-11-19T04:48:58;9.40;90.20
63445;DHT22;49573;47.682;9.170;2023-11-19T04:51:45;9.40;90.00
63445;DHT22;49573;47.682;9.170;2023-11-19T04:54:32;9.40;90.10
63445;DHT22;49573;47.682;9.170;2023-11-19T04:57:18;9.40;90.20
63445;DHT22;49573;47.682;9.170;2023-11-19T05:00:07;9.40;90.20
63445;DHT22;49573;47.682;9.170;2023-11-19T05:02:53;9.40;90.30
63445;DHT22;49573;47.682;9.170;2023-11-19T05:05:39;9.40;90.20
63445;DHT22;49573;47.682;9.170;2023-11-19T05:08:25;9.40;90.10
63445;DHT22;49573;47.682;9.170;2023-11-19T05:11:12;9.40;90.10
63445;DHT22;49573;47.682;9.170;2023-11-19T05:13:59;9.40;90.30
63445;DHT22;49573;47.682;9.170;2023-11-19T05:16:47;9.40;90.10
63445;DHT22;49573;47.682;9.170;2023-11-19T05:19:33;9.40;90.30
63445;DHT22;49573;47.682;9.170;2023-11-19T05:22:19;9.40;90.20
63445;DHT22;49573;47.682;9.170;2023-11-19T05:25:07;9.40;90.20
63445;DHT22;49573;47.682;9.170;2023-11-19T05:27:53;9.40;90.40
63445;DHT22;49573;47.682;9.170;2023-11-19T05:30:39;9.40;90.40
63445;DHT22;49573;47.682;9.170;2023-11-19T05:33:26;9.50;90.40
63445;DHT22;49573;47.682;9.170;2023-11-19T05:36:13;9.50;90.50
63445;DHT22;49573;47.682;9.170;2023-11-19T05:38:59;9.50;90.50
63445;DHT22;49573;47.682;9.170;2023-11-19T05:41:45;9.60;90.60
63445;DHT22;49573;47.682;9.170;2023-11-19T05:44:31;9.60;90.60
63445;DHT22;49573;47.682;9.170;2023-11-19T05:47:17;9.70;90.60
63445;DHT22;49573;47.682;9.170;2023-11-19T05:50:05;9.70;90.70
63445;DHT22;49573;47.682;9.170;2023-11-19T05:52:52;9.70;90.80
63445;DHT22;49573;47.682;9.170;2023-11-19T05:55:39;9.70;90.70
63445;DHT22;49573;47.682;9.170;2023-11-19T05:58:41;9.80;90.60
63445;DHT22;49573;47.682;9.170;2023-11-19T06:01:27;9.80;90.70
63445;DHT22;49573;47.682;9.170;2023-11-19T06:04:15;9.80;90.70
63445;DHT22;49573;47.682;9.170;2023-11-19T06:07:03;9.90;90.80
63445;DHT22;49573;47.682;9.170;2023-11-19T06:09:49;10.00;90.60
63445;DHT22;49573;47.682;9.170;2023-11-19T06:12:35;10.00;90.80
63445;DHT22;49573;47.682;9.170;2023-11-19T06:15:24;10.10;90.60
63445;DHT22;49573;47.682;9.170;2023-11-19T06:18:10;10.10;90.70
63445;DHT22;49573;47.682;9.170;2023-11-19T06:21:00;10.00;90.60
63445;DHT22;49573;47.682;9.170;2023-11-19T06:23:47;10.00;90.70
63445;DHT22;49573;47.682;9.170;2023-11-19T06:26:34;10.00;90.80
63445;DHT22;49573;47.682;9.170;2023-11-19T06:29:20;10.00;90.90
63445;DHT22;49573;47.682;9.170;2023-11-19T06:32:07;10.10;90.70
63445;DHT22;49573;47.682;9.170;2023-11-19T06:34:53;10.20;90.60
63445;DHT22;49573;47.682;9.170;2023-11-19T06:37:40;10.20;90.70
63445;DHT22;49573;47.682;9.170;2023-11-19T06:40:27;10.20;90.80
63445;DHT22;49573;47.682;9.170;2023-11-19T06:43:13;10.20;90.70
63445;DHT22;49573;47.682;9.170;2023-11-19T06:46:00;10.30;90.70
63445;DHT22;49573;47.682;9.170;2023-11-19T06:48:46;10.30;90.70
63445;DHT22;49573;47.682;9.170;2023-11-19T06:51:32;10.30;90.80
63445;DHT22;49573;47.682;9.170;2023-11-19T06:54:18;10.30;90.90
63445;DHT22;49573;47.682;9.170;2023-11-19T06:57:05;10.40;90.90
63445;DHT22;49573;47.682;9.170;2023-11-19T06:59:51;10.30;91.00
63445;DHT22;49573;47.682;9.170;2023-11-19T07:02:38;10.40;91.10
63445;DHT22;49573;47.682;9.170;2023-11-19T07:05:25;10.50;91.00
63445;DHT22;49573;47.682;9.170;2023-11-19T07:08:11;10.50;91.10
63445;DHT22;49573;47.682;9.170;2023-11-19T07:10:57;10.50;90.90
63445;DHT22;49573;47.682;9.170;2023-11-19T07:13:44;10.60;90.90
63445;DHT22;49573;47.682;9.170;2023-11-19T07:16:32;10.70;90.70
63445;DHT22;49573;47.682;9.170;2023-11-19T07:19:18;10.80;90.50
63445;DHT22;49573;47.682;9.170;2023-11-19T07:22:05;10.80;90.40
63445;DHT22;49573;47.682;9.170;2023-11-19T07:24:52;10.80;90.20
63445;DHT22;49573;47.682;9.170;2023-11-19T07:27:39;10.90;90.10
63445;DHT22;49573;47.682;9.170;2023-11-19T07:30:26;11.00;89.90
63445;DHT22;49573;47.682;9.170;2023-11-19T07:33:12;11.00;89.70
63445;DHT22;49573;47.682;9.170;2023-11-19T07:35:59;11.00;89.90
63445;DHT22;49573;47.682;9.170;2023-11-19T07:38:46;11.00;89.80
63445;DHT22;49573;47.682;9.170;2023-11-19T07:41:33;11.10;89.70
63445;DHT22;49573;47.682;9.170;2023-11-19T07:44:19;11.30;89.50
63445;DHT22;49573;47.682;9.170;2023-11-19T07:47:08;11.30;89.10
63445;DHT22;49573;47.682;9.170;2023-11-19T07:49:54;11.30;89.20
63445;DHT22;49573;47.682;9.170;2023-11-19T07:52:40;11.30;89.40
63445;DHT22;49573;47.682;9.170;2023-11-19T07:55:26;11.30;89.40
63445;DHT22;49573;47.682;9.170;2023-11-19T07:58:13;11.30;89.10
63445;DHT22;49573;47.682;9.170;2023-11-19T08:01:00;11.30;89.10
63445;DHT22;49573;47.682;9.170;2023-11-19T08:03:49;11.30;89.20
63445;DHT22;49573;47.682;9.170;2023-11-19T08:06:35;11.40;89.20
63445;DHT22;49573;47.682;9.170;2023-11-19T08:09:22;11.40;89.20
63445;DHT22;49573;47.682;9.170;2023-11-19T08:12:09;11.40;89.30
63445;DHT22;49573;47.682;9.170;2023-11-19T08:14:55;11.40;89.30
63445;DHT22;49573;47.682;9.170;2023-11-19T08:17:43;11.50;89.40
63445;DHT22;49573;47.682;9.170;2023-11-19T08:20:32;11.50;89.50
63445;DHT22;49573;47.682;9.170;2023-11-19T08:23:18;11.50;89.60
63445;DHT22;49573;47.682;9.170;2023-11-19T08:26:05;11.50;89.50
63445;DHT22;49573;47.682;9.170;2023-11-19T08:28:51;11.50;89.60
63445;DHT22;49573;47.682;9.170;2023-11-19T08:31:38;11.60;89.50
63445;DHT22;49573;47.682;9.170;2023-11-19T08:34:24;11.60;89.30
63445;DHT22;49573;47.682;9.170;2023-11-19T08:37:12;11.70;89.50
63445;DHT22;49573;47.682;9.170;2023-11-19T08:39:58;11.60;89.40
63445;DHT22;49573;47.682;9.170;2023-11-19T08:42:45;11.70;89.40
63445;DHT22;49573;47.682;9.170;2023-11-19T08:45:31;11.70;89.50
63445;DHT22;49573;47.682;9.170;2023-11-19T08:48:17;11.70;89.50
63445;DHT22;49573;47.682;9.170;2023-11-19T08:51:04;11.70;89.50
63445;DHT22;49573;47.682;9.170;2023-11-19T08:53:51;11.70;89.40
63445;DHT22;49573;47.682;9.170;2023-11-19T08:56:38;11.70;89.50
63445;DHT22;49573;47.682;9.170;2023-11-19T08:59:25;11.70;89.20
63445;DHT22;49573;47.682;9.170;2023-11-19T09:02:11;11.80;89.40
63445;DHT22;49573;47.682;9.170;2023-11-19T09:04:57;11.70;89.50
63445;DHT22;49573;47.682;9.170;2023-11-19T09:07:44;11.80;89.50
63445;DHT22;49573;47.682;9.170;2023-11-19T09:10:31;11.80;89.40
63445;DHT22;49573;47.682;9.170;2023-11-19T09:13:17;11.80;89.40
63445;DHT22;49573;47.682;9.170;2023-11-19T09:16:04;11.80;89.40
63445;DHT22;49573;47.682;9.170;2023-11-19T09:18:51;11.80;89.20
63445;DHT22;49573;47.682;9.170;2023-11-19T09:21:37;11.90;89.30
63445;DHT22;49573;47.682;9.170;2023-11-19T09:24:26;11.90;89.20
63445;DHT22;49573;47.682;9.170;2023-11-19T09:27:13;11.90;89.30
63445;DHT22;49573;47.682;9.170;2023-11-19T09:29:59;11.90;89.30
63445;DHT22;49573;47.682;9.170;2023-11-19T09:32:45;12.00;89.40
63445;DHT22;49573;47.682;9.170;2023-11-19T09:35:31;12.00;89.40
63445;DHT22;49573;47.682;9.170;2023-11-19T09:38:17;12.00;89.40
63445;DHT22;49573;47.682;9.170;2023-11-19T09:41:04;12.00;89.40
63445;DHT22;49573;47.682;9.170;2023-11-19T09:43:55;12.00;89.50
63445;DHT22;49573;47.682;9.170;2023-11-19T09:46:41;12.10;89.40
63445;DHT22;49573;47.682;9.170;2023-11-19T09:49:28;12.10;89.40
63445;DHT22;49573;47.682;9.170;2023-11-19T09:52:14;12.10;89.40
63445;DHT22;49573;47.682;9.170;2023-11-19T09:55:00;12.10;89.60
63445;DHT22;49573;47.682;9.170;2023-11-19T09:57:47;12.20;89.60
63445;DHT22;49573;47.682;9.170;2023-11-19T10:00:36;12.20;89.90
63445;DHT22;49573;47.682;9.170;2023-11-19T10:03:23;12.20;89.80
63445;DHT22;49573;47.682;9.170;2023-11-19T10:06:09;12.20;89.70
63445;DHT22;49573;47.682;9.170;2023-11-19T10:08:55;12.20;89.80
63445;DHT22;49573;47.682;9.170;2023-11-19T10:11:41;12.30;90.00
63445;DHT22;49573;47.682;9.170;2023-11-19T10:14:28;12.40;90.00
63445;DHT22;49573;47.682;9.170;2023-11-19T10:17:18;12.50;89.80
63445;DHT22;49573;47.682;9.170;2023-11-19T10:20:06;12.70;89.40
63445;DHT22;49573;47.682;9.170;2023-11-19T10:22:53;12.90;88.90
63445;DHT22;49573;47.682;9.170;2023-11-19T10:25:40;13.10;88.00
63445;DHT22;49573;47.682;9.170;2023-11-19T10:28:26;13.30;87.80
63445;DHT22;49573;47.682;9.170;2023-11-19T10:31:13;13.80;87.50
63445;DHT22;49573;47.682;9.170;2023-11-19T10:34:00;13.70;85.80
63445;DHT22;49573;47.682;9.170;2023-11-19T10:36:46;13.70;86.00
63445;DHT22;49573;47.682;9.170;2023-11-19T10:39:52;14.00;85.60
63445;DHT22;49573;47.682;9.170;2023-11-19T10:42:41;14.20;85.40
63445;DHT22;49573;47.682;9.170;2023-11-19T10:45:27;14.30;85.20
63445;DHT22;49573;47.682;9.170;2023-11-19T10:48:13;14.80;84.50
63445;DHT22;49573;47.682;9.170;2023-11-19T10:51:05;14.30;84.00
63445;DHT22;49573;47.682;9.170;2023-11-19T10:53:55;14.30;83.20
63445;DHT22;49573;47.682;9.170;2023-11-19T10:56:48;14.20;83.60
63445;DHT22;49573;47.682;9.170;2023-11-19T10:59:38;14.00;84.30
63445;DHT22;49573;47.682;9.170;2023-11-19T11:02:26;14.00;84.80
63445;DHT22;49573;47.682;9.170;2023-11-19T11:05:14;13.90;84.10
63445;DHT22;49573;47.682;9.170;2023-11-19T11:08:04;13.90;84.30
63445;DHT22;49573;47.682;9.170;2023-11-19T11:10:53;13.80;84.90
63445;DHT22;49573;47.682;9.170;2023-11-19T11:13:42;13.80;84.50
63445;DHT22;49573;47.682;9.170;2023-11-19T11:16:29;13.90;84.10
63445;DHT22;49573;47.682;9.170;2023-11-19T11:19:16;14.10;85.00
63445;DHT22;49573;47.682;9.170;2023-11-19T11:22:03;14.10;84.10
63445;DHT22;49573;47.682;9.170;2023-11-19T11:25:21;14.50;84.30
63445;DHT22;49573;47.682;9.170;2023-11-19T11:28:24;14.70;81.70
63445;DHT22;49573;47.682;9.170;2023-11-19T11:31:20;15.30;82.20
63445;DHT22;49573;47.682;9.170;2023-11-19T11:34:29;15.40;81.20
63445;DHT22;49573;47.682;9.170;2023-11-19T11:37:26;15.50;81.40
63445;DHT22;49573;47.682;9.170;2023-11-19T11:40:18;15.30;80.60
63445;DHT22;49573;47.682;9.170;2023-11-19T11:43:04;15.10;81.00
63445;DHT22;49573;47.682;9.170;2023-11-19T11:45:51;14.80;81.10
63445;DHT22;49573;47.682;9.170;2023-11-19T11:48:43;14.70;81.60
63445;DHT22;49573;47.682;9.170;2023-11-19T11:51:59;14.50;81.50
63445;DHT22;49573;47.682;9.170;2023-11-19T11:54:45;14.40;82.40
63445;DHT22;49573;47.682;9.170;2023-11-19T11:57:37;14.40;82.20
63445;DHT22;49573;47.682;9.170;2023-11-19T12:00:27;14.20;82.20
63445;DHT22;49573;47.682;9.170;2023-11-19T12:03:13;14.00;82.70
63445;DHT22;49573;47.682;9.170;2023-11-19T12:05:59;14.20;83.10
63445;DHT22;49573;47.682;9.170;2023-11-19T12:08:45;14.10;82.70
63445;DHT22;49573;47.682;9.170;2023-11-19T12:11:31;14.10;82.70
63445;DHT22;49573;47.682;9.170;2023-11-19T12:18:01;14.10;83.10
63445;DHT22;49573;47.682;9.170;2023-11-19T12:20:47;14.20;83.10
63445;DHT22;49573;47.682;9.170;2023-11-19T12:23:34;14.10;83.20
63445;DHT22;49573;47.682;9.170;2023-11-19T12:26:38;14.00;83.60
63445;DHT22;49573;47.682;9.170;2023-11-19T12:29:24;13.90;83.80
63445;DHT22;49573;47.682;9.170;2023-11-19T12:32:11;13.90;84.20
63445;DHT22;49573;47.682;9.170;2023-11-19T12:34:57;13.80;84.10
63445;DHT22;49573;47.682;9.170;2023-11-19T12:37:45;13.70;84.50
63445;DHT22;49573;47.682;9.170;2023-11-19T12:40:31;13.70;84.70
63445;DHT22;49573;47.682;9.170;2023-11-19T12:43:22;13.60;85.20
63445;DHT22;49573;47.682;9.170;2023-11-19T12:46:18;13.50;84.80
63445;DHT22;49573;47.682;9.170;2023-11-19T12:49:06;13.60;84.60
63445;DHT22;49573;47.682;9.170;2023-11-19T12:51:52;13.50;84.70
63445;DHT22;49573;47.682;9.170;2023-11-19T12:54:39;13.50;84.80
63445;DHT22;49573;47.682;9.170;2023-11-19T12:57:36;13.50;84.80
63445;DHT22;49573;47.682;9.170;2023-11-19T13:00:24;13.50;84.80
63445;DHT22;49573;47.682;9.170;2023-11-19T13:03:10;13.50;84.90
63445;DHT22;49573;47.682;9.170;2023-11-19T13:06:03;13.50;85.10
63445;DHT22;49573;47.682;9.170;2023-11-19T13:08:50;13.50;85.10
63445;DHT22;49573;47.682;9.170;2023-11-19T13:11:38;13.80;84.70
63445;DHT22;49573;47.682;9.170;2023-11-19T13:14:36;15.20;82.70
63445;DHT22;49573;47.682;9.170;2023-11-19T13:17:23;16.30;78.10
63445;DHT22;49573;47.682;9.170;2023-11-19T13:20:10;16.30;77.80
63445;DHT22;49573;47.682;9.170;2023-11-19T13:22:58;16.40;77.50
63445;DHT22;49573;47.682;9.170;2023-11-19T13:25:45;15.70;78.40
63445;DHT22;49573;47.682;9.170;2023-11-19T13:28:31;15.30;79.70
63445;DHT22;49573;47.682;9.170;2023-11-19T13:31:17;15.00;80.30
63445;DHT22;49573;47.682;9.170;2023-11-19T13:34:04;15.20;80.70
63445;DHT22;49573;47.682;9.170;2023-11-19T13:36:50;15.70;80.00
63445;DHT22;49573;47.682;9.170;2023-11-19T13:39:41;15.90;78.00
63445;DHT22;49573;47.682;9.170;2023-11-19T13:42:27;15.40;79.90
63445;DHT22;49573;47.682;9.170;2023-11-19T13:45:14;14.90;81.00
63445;DHT22;49573;47.682;9.170;2023-11-19T13:48:00;14.70;81.30
63445;DHT22;49573;47.682;9.170;2023-11-19T13:50:46;14.50;81.70
63445;DHT22;49573;47.682;9.170;2023-11-19T13:53:32;14.30;82.30
63445;DHT22;49573;47.682;9.170;2023-11-19T13:56:20;14.20;82.70
63445;DHT22;49573;47.682;9.170;2023-11-19T13:59:06;14.40;81.80
63445;DHT22;49573;47.682;9.170;2023-11-19T14:01:54;14.80;81.10
63445;DHT22;49573;47.682;9.170;2023-11-19T14:04:40;14.80;80.60
63445;DHT22;49573;47.682;9.170;2023-11-19T14:07:27;15.40;79.40
63445;DHT22;49573;47.682;9.170;2023-11-19T14:10:13;14.80;80.70
63445;DHT22;49573;47.682;9.170;2023-11-19T14:13:01;14.80;81.00
63445;DHT22;49573;47.682;9.170;2023-11-19T14:15:49;14.80;81.30
63445;DHT22;49573;47.682;9.170;2023-11-19T14:18:35;14.90;80.50
63445;DHT22;49573;47.682;9.170;2023-11-19T14:21:21;14.80;80.60
63445;DHT22;49573;47.682;9.170;2023-11-19T14:24:07;14.70;81.00
63445;DHT22;49573;47.682;9.170;2023-11-19T14:26:53;14.60;81.20
63445;DHT22;49573;47.682;9.170;2023-11-19T14:29:41;14.50;81.20
63445;DHT22;49573;47.682;9.170;2023-11-19T14:32:27;14.30;81.50
63445;DHT22;49573;47.682;9.170;2023-11-19T14:35:13;14.30;81.70
63445;DHT22;49573;47.682;9.170;2023-11-19T14:37:59;14.30;81.10
63445;DHT22;49573;47.682;9.170;2023-11-19T14:40:45;14.30;81.40
63445;DHT22;49573;47.682;9.170;2023-11-19T14:43:31;14.30;81.30
63445;DHT22;49573;47.682;9.170;2023-11-19T14:46:19;14.30;81.20
63445;DHT22;49573;47.682;9.170;2023-11-19T14:49:05;14.10;81.80
63445;DHT22;49573;47.682;9.170;2023-11-19T14:51:52;14.00;81.90
63445;DHT22;49573;47.682;9.170;2023-11-19T14:54:38;14.30;81.00
63445;DHT22;49573;47.682;9.170;2023-11-19T14:57:24;14.50;79.80
63445;DHT22;49573;47.682;9.170;2023-11-19T15:00:11;14.80;80.10
63445;DHT22;49573;47.682;9.170;2023-11-19T15:03:02;14.80;79.70
63445;DHT22;49573;47.682;9.170;2023-11-19T15:05:48;14.50;80.20
63445;DHT22;49573;47.682;9.170;2023-11-19T15:08:34;14.20;81.20
63445;DHT22;49573;47.682;9.170;2023-11-19T15:11:20;14.10;81.70
63445;DHT22;49573;47.682;9.170;2023-11-19T15:14:07;14.00;82.20
63445;DHT22;49573;47.682;9.170;2023-11-19T15:16:53;13.90;82.50
63445;DHT22;49573;47.682;9.170;2023-11-19T15:19:40;13.80;83.00
63445;DHT22;49573;47.682;9.170;2023-11-19T15:22:26;13.60;83.50
63445;DHT22;49573;47.682;9.170;2023-11-19T15:25:12;13.50;84.00
63445;DHT22;49573;47.682;9.170;2023-11-19T15:27:59;13.40;83.90
63445;DHT22;49573;47.682;9.170;2023-11-19T15:30:45;13.50;83.80
63445;DHT22;49573;47.682;9.170;2023-11-19T15:33:31;13.40;83.90
63445;DHT22;49573;47.682;9.170;2023-11-19T15:36:18;13.30;84.40
63445;DHT22;49573;47.682;9.170;2023-11-19T15:39:04;13.30;84.70
63445;DHT22;49573;47.682;9.170;2023-11-19T15:41:51;13.20;84.90
63445;DHT22;49573;47.682;9.170;2023-11-19T15:44:37;13.10;85.20
63445;DHT22;49573;47.682;9.170;2023-11-19T15:47:24;13.10;85.20
63445;DHT22;49573;47.682;9.170;2023-11-19T15:50:10;13.00;85.20
63445;DHT22;49573;47.682;9.170;2023-11-19T15:52:58;13.00;85.40
63445;DHT22;49573;47.682;9.170;2023-11-19T15:55:45;12.90;85.50
63445;DHT22;49573;47.682;9.170;2023-11-19T15:58:31;12.90;85.50
63445;DHT22;49573;47.682;9.170;2023-11-19T16:01:17;12.80;85.70
63445;DHT22;49573;47.682;9.170;2023-11-19T16:04:04;12.80;86.00
63445;DHT22;49573;47.682;9.170;2023-11-19T16:06:50;12.80;85.90
63445;DHT22;49573;47.682;9.170;2023-11-19T16:09:37;12.80;85.80
63445;DHT22;49573;47.682;9.170;2023-11-19T16:12:23;12.70;85.90
63445;DHT22;49573;47.682;9.170;2023-11-19T16:15:11;12.60;86.10
63445;DHT22;49573;47.682;9.170;2023-11-19T16:17:57;12.60;86.00
63445;DHT22;49573;47.682;9.170;2023-11-19T16:20:43;12.50;86.30
63445;DHT22;49573;47.682;9.170;2023-11-19T16:23:30;12.50;86.10
63445;DHT22;49573;47.682;9.170;2023-11-19T16:26:18;12.50;86.20
63445;DHT22;49573;47.682;9.170;2023-11-19T16:29:04;12.40;86.20
63445;DHT22;49573;47.682;9.170;2023-11-19T16:31:51;12.50;86.20
63445;DHT22;49573;47.682;9.170;2023-11-19T16:34:37;12.40;86.40
63445;DHT22;49573;47.682;9.170;2023-11-19T16:37:28;12.40;86.40
63445;DHT22;49573;47.682;9.170;2023-11-19T16:40:14;12.30;86.40
63445;DHT22;49573;47.682;9.170;2023-11-19T16:43:01;12.30;86.30
63445;DHT22;49573;47.682;9.170;2023-11-19T16:45:47;12.30;86.40
63445;DHT22;49573;47.682;9.170;2023-11-19T16:48:34;12.30;86.60
63445;DHT22;49573;47.682;9.170;2023-11-19T16:51:20;12.30;86.60
63445;DHT22;49573;47.682;9.170;2023-11-19T16:54:06;12.30;86.70
63445;DHT22;49573;47.682;9.170;2023-11-19T16:56:52;12.30;86.70
63445;DHT22;49573;47.682;9.170;2023-11-19T16:59:40;12.30;86.60
63445;DHT22;49573;47.682;9.170;2023-11-19T17:02:26;12.30;86.50
63445;DHT22;49573;47.682;9.170;2023-11-19T17:05:12;12.30;86.70
63445;DHT22;49573;47.682;9.170;2023-11-19T17:08:00;12.30;86.70
63445;DHT22;49573;47.682;9.170;2023-11-19T17:10:46;12.30;86.60
63445;DHT22;49573;47.682;9.170;2023-11-19T17:13:33;12.30;86.60
63445;DHT22;49573;47.682;9.170;2023-11-19T17:16:20;12.30;86.60
63445;DHT22;49573;47.682;9.170;2023-11-19T17:19:06;12.20;86.50
63445;DHT22;49573;47.682;9.170;2023-11-19T17:21:52;12.20;86.50
63445;DHT22;49573;47.682;9.170;2023-11-19T17:24:38;12.10;86.60
63445;DHT22;49573;47.682;9.170;2023-11-19T17:27:25;12.10;86.70
63445;DHT22;49573;47.682;9.170;2023-11-19T17:30:13;12.00;87.00
63445;DHT22;49573;47.682;9.170;2023-11-19T17:33:01;12.00;86.80
63445;DHT22;49573;47.682;9.170;2023-11-19T17:35:47;12.00;87.00
63445;DHT22;49573;47.682;9.170;2023-11-19T17:38:33;12.00;86.70
63445;DHT22;49573;47.682;9.170;2023-11-19T17:41:19;11.90;86.90
63445;DHT22;49573;47.682;9.170;2023-11-19T17:44:05;11.80;86.80
63445;DHT22;49573;47.682;9.170;2023-11-19T17:46:52;11.80;86.70